• Join FlightAware (Why Join?)
  • Login
  • US Flag 
07:24AM EDT


 

Airport Tracker/Info


-or-


 

Live Flight TrackerFlight Track Log ✈ TAM3224 ✈ 15-Jun-2013 ✈ SBSP / CGH - SBCF / CNF

Flight Track Log - Related Links

Times and Time Zones

All times are in EDT time to prevent confusion due to time zone crossing. See the TAM3224 flight status page for this flight to view local times or setup timezone preferences in your user account.

Time Position Orientation Groundspeed Altitude Reporting Facility
EDT Latitude Longitude Course Direction KTS MPH feet Rate Location/Type
05:32PM -23.6250 -46.6590 113° Southeast  Level FlightAware
05:36PM -23.6210 -46.6610 335° Northwest 480 Level FlightAware
05:38PM -23.6200 -46.6610 360° North 1,140 Level FlightAware
05:39PM -23.6220 -46.6600 155° Southeast 2,160 Level FlightAware
05:39PM -23.6350 -46.6510 148° Southeast 2,800 3,420 Climbing FlightAware
05:40PM -23.6480 -46.6230 117° Southeast 182 209 4,000 2,280 Climbing FlightAware
05:40PM -23.6190 -46.5970 39° Northeast 209 241 5,600 2,400 Climbing FlightAware
05:40PM -23.6110 -46.5840 56° Northeast 236 272 5,800 1,260 Climbing FlightAware
05:41PM -23.6010 -46.5460 74° East 284 327 6,500 2,520 Climbing FlightAware
05:41PM -23.5930 -46.5070 77° East 289 333 8,200 3,120 Climbing FlightAware
05:42PM -23.5890 -46.4870 78° East 300 345 8,700 2,280 Climbing FlightAware
05:42PM -23.5800 -46.4420 78° East 302 348 9,900 1,320 Climbing FlightAware
05:43PM -23.5590 -46.4080 56° Northeast 297 342 10,000 120 Climbing FlightAware
05:43PM -23.5100 -46.3830 25° Northeast 289 333 10,100 780 Climbing FlightAware
05:44PM -23.4570 -46.3570 24° Northeast 338 389 11,100 2,340 Climbing FlightAware
05:45PM -23.3910 -46.3230 25° Northeast 349 402 13,500 2,880 Climbing FlightAware
05:45PM -23.3500 -46.3020 25° Northeast 338 389 15,300 2,820 Climbing FlightAware
05:46PM -23.3020 -46.2770 26° Northeast 335 386 17,100 2,220 Climbing FlightAware
05:47PM -23.2160 -46.2340 25° Northeast 377 434 18,300 1,620 Climbing FlightAware
05:47PM -23.1400 -46.1960 25° Northeast 408 470 19,600 1,860 Climbing FlightAware
05:48PM -23.0720 -46.1570 28° Northeast 410 472 21,000 2,100 Climbing FlightAware
05:49PM -22.9970 -46.1030 34° Northeast 425 489 22,600 2,040 Climbing FlightAware
05:50PM -22.9310 -46.0590 32° Northeast 423 487 23,900 2,100 Climbing FlightAware
05:50PM -22.8550 -46.0070 32° Northeast 422 486 25,600 1,920 Climbing FlightAware
05:51PM -22.7850 -45.9600 32° Northeast 439 505 26,600 1,320 Climbing FlightAware
05:52PM -22.7160 -45.9130 32° Northeast 452 520 27,400 1,500 Climbing FlightAware
05:53PM -22.6170 -45.8460 32° Northeast 456 525 29,000 1,800 Climbing FlightAware
05:53PM -22.5360 -45.7910 32° Northeast 453 521 30,500 1,860 Climbing FlightAware
05:54PM -22.4570 -45.7380 32° Northeast 452 520 31,800 1,620 Climbing FlightAware
05:55PM -22.3850 -45.6900 32° Northeast 453 521 32,800 960 Climbing FlightAware
05:55PM -22.3230 -45.6480 32° Northeast 457 526 33,000 120 Climbing FlightAware
05:56PM -22.2440 -45.5950 32° Northeast 457 526 33,000  Level FlightAware
05:57PM -22.1720 -45.5460 32° Northeast 459 528 33,000  Level FlightAware
05:58PM -22.0810 -45.4850 32° Northeast 455 524 33,000  Level FlightAware
05:58PM -22.0100 -45.4380 32° Northeast 455 524 33,000  Level FlightAware
05:59PM -21.9370 -45.3890 32° Northeast 455 524 33,000  Level FlightAware
06:00PM -21.8590 -45.3370 32° Northeast 455 524 33,000  Level FlightAware
06:00PM -21.7940 -45.2930 32° Northeast 456 525 33,000  Level FlightAware
06:01PM -21.6870 -45.2210 32° Northeast 455 524 33,000  Level FlightAware
06:02PM -21.6160 -45.1740 32° Northeast 457 526 33,000  Level FlightAware
06:03PM -21.5440 -45.1260 32° Northeast 458 527 33,000  Level FlightAware
06:03PM -21.4770 -45.0810 32° Northeast 458 527 33,000  Level FlightAware
06:04PM -21.3720 -45.0120 31° Northeast 460 529 33,000  Level FlightAware
06:05PM -21.3110 -44.9710 32° Northeast 460 529 33,000  Level FlightAware
06:06PM -21.2160 -44.9080 32° Northeast 460 529 33,000  Level FlightAware
06:06PM -21.1520 -44.8660 31° Northeast 460 529 33,000 -960 Level FlightAware
06:07PM -21.0760 -44.8150 32° Northeast 471 542 31,700 -2,400 Descending FlightAware
06:08PM -20.9740 -44.7600 27° Northeast 459 528 29,200 -2,940 Descending FlightAware
06:09PM -20.8740 -44.7180 21° North 446 513 27,200 -2,520 Descending FlightAware
06:09PM -20.7900 -44.6820 22° Northeast 430 495 25,700 -1,980 Descending FlightAware
06:10PM -20.7270 -44.6550 22° Northeast 416 479 24,500 -1,980 Descending FlightAware
06:11PM -20.6210 -44.6100 22° Northeast 403 464 22,600 -1,980 Descending FlightAware
06:12PM -20.5360 -44.5740 22° Northeast 397 457 21,100 -1,800 Descending FlightAware
06:12PM -20.4680 -44.5450 22° Northeast 394 453 19,900 -1,440 Descending FlightAware
06:13PM -20.3980 -44.5160 21° North 391 450 19,200 -1,020 Descending FlightAware
06:14PM -20.3240 -44.4840 22° Northeast 381 438 18,500 -1,020 Descending FlightAware
06:14PM -20.2600 -44.4570 22° Northeast 375 432 17,800 -1,440 Descending FlightAware
06:15PM -20.1870 -44.4270 21° North 368 423 16,500 -1,680 Descending FlightAware
06:16PM -20.1260 -44.4010 22° Northeast 362 417 15,500 -1,620 Descending FlightAware
06:17PM -20.0630 -44.3740 22° Northeast 355 409 14,400 -1,320 Descending FlightAware
06:17PM -20.0070 -44.3510 21° North 13,500 -1,140 Descending FlightAware
06:18PM -19.9330 -44.3190 22° Northeast 350 403 12,700 -1,620 Descending FlightAware
06:19PM -19.8880 -44.3010 21° North 350 403 11,400 -1,920 Descending FlightAware
06:19PM -19.8130 -44.2690 22° Northeast 324 373 10,200 -1,320 Descending FlightAware
06:20PM -19.7830 -44.2570 21° North 308 354 9,900 -1,140 Descending FlightAware
06:20PM -19.7360 -44.2370 22° Northeast 298 343 9,100 -1,320 Descending FlightAware
06:21PM -19.7160 -44.2330 11° North 295 339 8,800 -1,200 Descending FlightAware
06:21PM -19.6830 -44.2270 10° North 292 336 8,300 -1,380 Descending FlightAware
06:21PM -19.6640 -44.2240 North 288 331 7,900 -1,080 Descending FlightAware
06:22PM -19.6230 -44.2170 North 281 323 7,500 -780 Descending FlightAware
06:22PM -19.5910 -44.2120 North 265 305 7,200 -600 Descending FlightAware
06:23PM -19.5630 -44.2080 North 252 290 7,000 -480 Descending FlightAware
06:23PM -19.5290 -44.2020 North 231 266 6,800 -540 Descending FlightAware
06:23PM -19.5140 -44.2000 North 222 255 6,600 -540 Descending FlightAware
06:24PM -19.4840 -44.1950 North 213 245 6,400 -480 Descending FlightAware
06:24PM -19.4760 -44.1910 25° Northeast 212 244 6,300 -480 Descending FlightAware
06:24PM -19.4670 -44.1790 51° Northeast 211 243 6,200 -240 Descending FlightAware
06:24PM -19.4650 -44.1690 78° East 212 244 6,200  Level FlightAware
06:25PM -19.4710 -44.1480 107° East 215 247 6,200 -300 Level FlightAware
06:25PM -19.4840 -44.1100 110° East 218 251 5,900 -600 Descending FlightAware
06:26PM -19.4950 -44.0970 132° Southeast 218 251 5,700 -1,080 Descending FlightAware
06:26PM -19.5180 -44.0760 139° Southeast 213 245 5,100 -1,140 Descending FlightAware
06:27PM -19.5360 -44.0590 138° Southeast 206 237 4,700 -960 Descending FlightAware
06:27PM -19.5510 -44.0450 139° Southeast 194 223 4,300 -900 Descending FlightAware
06:27PM -19.5700 -44.0280 140° Southeast 157 181 3,900 -900 Descending FlightAware
06:28PM -19.5830 -44.0160 139° Southeast 146 168 3,500 -780 Descending FlightAware
06:28PM -19.5980 -44.0020 139° Southeast 142 163 3,200 -720 Descending FlightAware
06:29PM -19.6120 -43.9890 139° Southeast 137 158 2,800 -420 Descending FlightAware
06:30PM -19.6290 -43.9730 138° Southeast 137 158 2,700 -180 Descending FlightAware
06:32PM -19.6338 -43.9689 141° Southeast  Level Estimated
06:33PM -19.6338 -43.9689 90° East  Level Estimated
06:34PM -19.6338 -43.9689 90° East  Level Estimated
06:35PM -19.6338 -43.9689 90° East  Level Estimated
06:36PM -19.6338 -43.9689 90° East  Level Estimated
06:37PM -19.6338 -43.9689 90° East  Level Estimated
06:38PM -19.6338 -43.9689 90° East  Level Estimated
06:39PM -19.6338 -43.9689 90° East  Level Estimated
06:40PM -19.6338 -43.9689 90° East  Level Estimated
06:41PM -19.6338 -43.9689 90° East  Level Estimated
06:42PM -19.6338 -43.9689 90° East  Level Estimated
06:43PM -19.6338 -43.9689 90° East  Level Estimated
06:44PM -19.6338 -43.9689 90° East  Level Estimated
06:45PM -19.6338 -43.9689 90° East  Level Estimated
06:46PM -19.6338 -43.9689 90° East  Level Estimated
06:47PM -19.6338 -43.9689 90° East  Level Estimated
06:48PM -19.6338 -43.9689 90° East  Level Estimated
06:49PM -19.6338 -43.9689 90° East  Level Estimated
06:50PM -19.6338 -43.9689 90° East  Level Estimated
06:51PM -19.6338 -43.9689 90° East  Level Estimated
06:52PM -19.6338 -43.9689 90° East  Level Estimated
06:53PM -19.6338 -43.9689 90° East  Level Estimated
06:54PM -19.6338 -43.9689 90° East  Level Estimated
06:55PM -19.6338 -43.9689 90° East  Level Estimated
06:56PM -19.6338 -43.9689 90° East  Level Estimated
06:57PM -19.6338 -43.9689 90° East  Level Estimated
06:58PM -19.6338 -43.9689 90° East  Level Estimated
06:59PM -19.6338 -43.9689 90° East  Level Estimated
07:00PM -19.6338 -43.9689 90° East  Level Estimated
07:01PM -19.6338 -43.9689 90° East  Level Estimated
07:02PM -19.6338 -43.9689 90° East  Level Estimated